sensor_id;sensor_type;location;lat;lon;timestamp;temperature;humidity
4757;DHT22;2392;52.578;13.426;2023-03-13T00:02:25;6.30;99.90
4757;DHT22;2392;52.578;13.426;2023-03-13T00:04:52;6.30;99.90
4757;DHT22;2392;52.578;13.426;2023-03-13T00:07:20;6.30;99.90
4757;DHT22;2392;52.578;13.426;2023-03-13T00:09:47;6.30;99.90
4757;DHT22;2392;52.578;13.426;2023-03-13T00:12:15;6.30;99.90
4757;DHT22;2392;52.578;13.426;2023-03-13T00:14:42;6.40;99.90
4757;DHT22;2392;52.578;13.426;2023-03-13T00:17:09;6.40;99.90
4757;DHT22;2392;52.578;13.426;2023-03-13T00:19:36;6.40;99.90
4757;DHT22;2392;52.578;13.426;2023-03-13T00:22:03;6.40;99.90
4757;DHT22;2392;52.578;13.426;2023-03-13T00:24:32;6.50;99.90
4757;DHT22;2392;52.578;13.426;2023-03-13T00:26:59;6.50;99.90
4757;DHT22;2392;52.578;13.426;2023-03-13T00:29:28;6.50;99.90
4757;DHT22;2392;52.578;13.426;2023-03-13T00:31:55;6.50;99.90
4757;DHT22;2392;52.578;13.426;2023-03-13T00:34:22;6.60;99.90
4757;DHT22;2392;52.578;13.426;2023-03-13T00:36:51;6.60;99.90
4757;DHT22;2392;52.578;13.426;2023-03-13T00:39:18;6.60;99.90
4757;DHT22;2392;52.578;13.426;2023-03-13T00:41:46;6.60;99.90
4757;DHT22;2392;52.578;13.426;2023-03-13T00:44:13;6.70;99.90
4757;DHT22;2392;52.578;13.426;2023-03-13T00:46:40;6.70;99.90
4757;DHT22;2392;52.578;13.426;2023-03-13T00:49:07;6.70;99.90
4757;DHT22;2392;52.578;13.426;2023-03-13T00:51:34;6.70;99.90
4757;DHT22;2392;52.578;13.426;2023-03-13T00:54:01;6.70;99.90
4757;DHT22;2392;52.578;13.426;2023-03-13T00:56:29;6.80;99.90
4757;DHT22;2392;52.578;13.426;2023-03-13T00:58:59;6.80;99.90
4757;DHT22;2392;52.578;13.426;2023-03-13T01:01:28;6.80;99.90
4757;DHT22;2392;52.578;13.426;2023-03-13T01:03:57;6.80;99.90
4757;DHT22;2392;52.578;13.426;2023-03-13T01:06:26;6.80;99.90
4757;DHT22;2392;52.578;13.426;2023-03-13T01:08:56;6.80;99.90
4757;DHT22;2392;52.578;13.426;2023-03-13T01:11:25;6.80;99.90
4757;DHT22;2392;52.578;13.426;2023-03-13T01:13:53;6.80;99.90
4757;DHT22;2392;52.578;13.426;2023-03-13T01:16:22;6.80;99.90
4757;DHT22;2392;52.578;13.426;2023-03-13T01:18:52;6.80;99.90
4757;DHT22;2392;52.578;13.426;2023-03-13T01:21:22;6.80;99.90
4757;DHT22;2392;52.578;13.426;2023-03-13T01:23:50;6.90;99.90
4757;DHT22;2392;52.578;13.426;2023-03-13T01:26:18;6.90;99.90
4757;DHT22;2392;52.578;13.426;2023-03-13T01:28:46;6.90;99.90
4757;DHT22;2392;52.578;13.426;2023-03-13T01:31:16;6.90;99.90
4757;DHT22;2392;52.578;13.426;2023-03-13T01:33:47;6.90;99.90
4757;DHT22;2392;52.578;13.426;2023-03-13T01:36:15;6.90;99.90
4757;DHT22;2392;52.578;13.426;2023-03-13T01:38:42;7.00;99.90
4757;DHT22;2392;52.578;13.426;2023-03-13T01:41:11;7.00;99.90
4757;DHT22;2392;52.578;13.426;2023-03-13T01:43:38;7.00;99.90
4757;DHT22;2392;52.578;13.426;2023-03-13T01:46:13;7.00;99.90
4757;DHT22;2392;52.578;13.426;2023-03-13T01:48:57;7.00;99.90
4757;DHT22;2392;52.578;13.426;2023-03-13T01:51:27;7.00;99.90
4757;DHT22;2392;52.578;13.426;2023-03-13T01:54:03;7.00;99.90
4757;DHT22;2392;52.578;13.426;2023-03-13T01:56:35;7.00;99.90
4757;DHT22;2392;52.578;13.426;2023-03-13T01:59:05;7.00;99.90
4757;DHT22;2392;52.578;13.426;2023-03-13T02:01:34;7.10;99.90
4757;DHT22;2392;52.578;13.426;2023-03-13T02:04:05;7.10;99.90
4757;DHT22;2392;52.578;13.426;2023-03-13T02:06:35;7.10;99.90
4757;DHT22;2392;52.578;13.426;2023-03-13T02:09:08;7.10;99.90
4757;DHT22;2392;52.578;13.426;2023-03-13T02:11:44;7.10;99.90
4757;DHT22;2392;52.578;13.426;2023-03-13T02:14:15;7.10;99.90
4757;DHT22;2392;52.578;13.426;2023-03-13T02:16:43;7.10;99.90
4757;DHT22;2392;52.578;13.426;2023-03-13T02:19:22;7.10;99.90
4757;DHT22;2392;52.578;13.426;2023-03-13T02:21:54;7.10;99.90
4757;DHT22;2392;52.578;13.426;2023-03-13T02:24:31;7.10;99.90
4757;DHT22;2392;52.578;13.426;2023-03-13T02:27:01;7.10;99.90
4757;DHT22;2392;52.578;13.426;2023-03-13T02:29:30;7.10;99.90
4757;DHT22;2392;52.578;13.426;2023-03-13T02:31:57;7.10;99.90
4757;DHT22;2392;52.578;13.426;2023-03-13T02:34:29;7.10;99.90
4757;DHT22;2392;52.578;13.426;2023-03-13T02:36:58;7.10;99.90
4757;DHT22;2392;52.578;13.426;2023-03-13T02:39:27;7.10;99.90
4757;DHT22;2392;52.578;13.426;2023-03-13T02:41:57;7.10;99.90
4757;DHT22;2392;52.578;13.426;2023-03-13T02:44:28;7.10;99.90
4757;DHT22;2392;52.578;13.426;2023-03-13T02:46:55;7.10;99.90
4757;DHT22;2392;52.578;13.426;2023-03-13T02:49:27;7.20;99.90
4757;DHT22;2392;52.578;13.426;2023-03-13T02:51:58;7.20;99.90
4757;DHT22;2392;52.578;13.426;2023-03-13T02:54:27;7.20;99.90
4757;DHT22;2392;52.578;13.426;2023-03-13T02:57:00;7.20;99.90
4757;DHT22;2392;52.578;13.426;2023-03-13T02:59:29;7.20;99.90
4757;DHT22;2392;52.578;13.426;2023-03-13T03:01:56;7.20;99.90
4757;DHT22;2392;52.578;13.426;2023-03-13T03:04:25;7.30;99.90
4757;DHT22;2392;52.578;13.426;2023-03-13T03:06:54;7.30;99.90
4757;DHT22;2392;52.578;13.426;2023-03-13T03:09:23;7.30;99.90
4757;DHT22;2392;52.578;13.426;2023-03-13T03:11:54;7.30;99.90
4757;DHT22;2392;52.578;13.426;2023-03-13T03:14:21;7.30;99.90
4757;DHT22;2392;52.578;13.426;2023-03-13T03:16:50;7.40;99.90
4757;DHT22;2392;52.578;13.426;2023-03-13T03:19:17;7.40;99.90
4757;DHT22;2392;52.578;13.426;2023-03-13T03:21:45;7.40;99.90
4757;DHT22;2392;52.578;13.426;2023-03-13T03:24:16;7.40;99.90
4757;DHT22;2392;52.578;13.426;2023-03-13T03:26:43;7.50;99.90
4757;DHT22;2392;52.578;13.426;2023-03-13T03:29:19;7.50;99.90
4757;DHT22;2392;52.578;13.426;2023-03-13T03:31:51;7.50;99.90
4757;DHT22;2392;52.578;13.426;2023-03-13T03:34:18;7.50;99.90
4757;DHT22;2392;52.578;13.426;2023-03-13T03:36:46;7.50;99.90
4757;DHT22;2392;52.578;13.426;2023-03-13T03:39:13;7.50;99.90
4757;DHT22;2392;52.578;13.426;2023-03-13T03:41:40;7.60;99.90
4757;DHT22;2392;52.578;13.426;2023-03-13T03:44:07;7.60;99.90
4757;DHT22;2392;52.578;13.426;2023-03-13T03:46:48;7.60;99.90
4757;DHT22;2392;52.578;13.426;2023-03-13T03:49:17;7.60;99.90
4757;DHT22;2392;52.578;13.426;2023-03-13T03:51:44;7.60;99.90
4757;DHT22;2392;52.578;13.426;2023-03-13T03:54:14;7.60;99.90
4757;DHT22;2392;52.578;13.426;2023-03-13T03:56:41;7.60;99.90
4757;DHT22;2392;52.578;13.426;2023-03-13T03:59:09;7.60;99.90
4757;DHT22;2392;52.578;13.426;2023-03-13T04:02:13;7.60;99.90
4757;DHT22;2392;52.578;13.426;2023-03-13T04:04:44;7.50;99.90
4757;DHT22;2392;52.578;13.426;2023-03-13T04:07:19;7.60;99.90
4757;DHT22;2392;52.578;13.426;2023-03-13T04:09:47;7.60;99.90
4757;DHT22;2392;52.578;13.426;2023-03-13T04:12:23;7.60;99.90
4757;DHT22;2392;52.578;13.426;2023-03-13T04:14:52;7.60;99.90
4757;DHT22;2392;52.578;13.426;2023-03-13T04:17:20;7.60;99.90
4757;DHT22;2392;52.578;13.426;2023-03-13T04:19:49;7.60;99.90
4757;DHT22;2392;52.578;13.426;2023-03-13T04:22:16;7.60;99.90
4757;DHT22;2392;52.578;13.426;2023-03-13T04:24:49;7.60;99.90
4757;DHT22;2392;52.578;13.426;2023-03-13T04:27:18;7.60;99.90
4757;DHT22;2392;52.578;13.426;2023-03-13T04:29:46;7.60;99.90
4757;DHT22;2392;52.578;13.426;2023-03-13T04:32:34;7.60;99.90
4757;DHT22;2392;52.578;13.426;2023-03-13T04:35:23;7.60;99.90
4757;DHT22;2392;52.578;13.426;2023-03-13T04:38:08;7.60;99.90
4757;DHT22;2392;52.578;13.426;2023-03-13T04:40:45;7.60;99.90
4757;DHT22;2392;52.578;13.426;2023-03-13T04:43:28;7.60;99.90
4757;DHT22;2392;52.578;13.426;2023-03-13T04:46:11;7.60;99.90
4757;DHT22;2392;52.578;13.426;2023-03-13T04:48:49;7.60;99.90
4757;DHT22;2392;52.578;13.426;2023-03-13T04:51:32;7.60;99.90
4757;DHT22;2392;52.578;13.426;2023-03-13T04:54:19;7.60;99.90
4757;DHT22;2392;52.578;13.426;2023-03-13T04:57:00;7.60;99.90
4757;DHT22;2392;52.578;13.426;2023-03-13T04:59:38;7.60;99.90
4757;DHT22;2392;52.578;13.426;2023-03-13T05:02:35;7.60;99.90
4757;DHT22;2392;52.578;13.426;2023-03-13T05:05:10;7.60;99.90
4757;DHT22;2392;52.578;13.426;2023-03-13T05:08:17;7.60;99.90
4757;DHT22;2392;52.578;13.426;2023-03-13T05:11:06;7.60;99.90
4757;DHT22;2392;52.578;13.426;2023-03-13T05:13:52;7.60;99.90
4757;DHT22;2392;52.578;13.426;2023-03-13T05:16:34;7.60;99.90
4757;DHT22;2392;52.578;13.426;2023-03-13T05:19:28;7.70;99.90
4757;DHT22;2392;52.578;13.426;2023-03-13T05:22:22;7.70;99.90
4757;DHT22;2392;52.578;13.426;2023-03-13T05:25:14;7.70;99.90
4757;DHT22;2392;52.578;13.426;2023-03-13T05:28:04;7.70;99.90
4757;DHT22;2392;52.578;13.426;2023-03-13T05:30:51;7.70;99.90
4757;DHT22;2392;52.578;13.426;2023-03-13T05:33:53;7.70;99.90
4757;DHT22;2392;52.578;13.426;2023-03-13T05:36:43;7.70;99.90
4757;DHT22;2392;52.578;13.426;2023-03-13T05:39:32;7.80;99.90
4757;DHT22;2392;52.578;13.426;2023-03-13T05:42:26;7.80;99.90
4757;DHT22;2392;52.578;13.426;2023-03-13T05:45:09;7.80;99.90
4757;DHT22;2392;52.578;13.426;2023-03-13T05:47:57;7.80;99.90
4757;DHT22;2392;52.578;13.426;2023-03-13T05:50:52;7.80;99.90
4757;DHT22;2392;52.578;13.426;2023-03-13T05:53:38;7.80;99.90
4757;DHT22;2392;52.578;13.426;2023-03-13T05:56:11;7.80;99.90
4757;DHT22;2392;52.578;13.426;2023-03-13T05:58:48;7.80;99.90
4757;DHT22;2392;52.578;13.426;2023-03-13T06:01:34;7.80;99.90
4757;DHT22;2392;52.578;13.426;2023-03-13T06:04:05;7.80;99.90
4757;DHT22;2392;52.578;13.426;2023-03-13T06:06:35;7.80;99.90
4757;DHT22;2392;52.578;13.426;2023-03-13T06:09:03;7.70;99.90
4757;DHT22;2392;52.578;13.426;2023-03-13T06:11:32;7.80;99.90
4757;DHT22;2392;52.578;13.426;2023-03-13T06:14:01;7.80;99.90
4757;DHT22;2392;52.578;13.426;2023-03-13T06:16:42;7.80;99.90
4757;DHT22;2392;52.578;13.426;2023-03-13T06:19:19;7.80;99.90
4757;DHT22;2392;52.578;13.426;2023-03-13T06:21:47;7.80;99.90
4757;DHT22;2392;52.578;13.426;2023-03-13T06:24:14;7.80;99.90
4757;DHT22;2392;52.578;13.426;2023-03-13T06:26:41;7.80;99.90
4757;DHT22;2392;52.578;13.426;2023-03-13T06:29:10;7.90;99.90
4757;DHT22;2392;52.578;13.426;2023-03-13T06:31:37;7.90;99.90
4757;DHT22;2392;52.578;13.426;2023-03-13T06:34:04;7.90;99.90
4757;DHT22;2392;52.578;13.426;2023-03-13T06:36:31;7.80;99.90
4757;DHT22;2392;52.578;13.426;2023-03-13T06:38:58;7.80;99.90
4757;DHT22;2392;52.578;13.426;2023-03-13T06:41:25;7.80;99.90
4757;DHT22;2392;52.578;13.426;2023-03-13T06:43:52;7.80;99.90
4757;DHT22;2392;52.578;13.426;2023-03-13T06:46:23;7.80;99.90
4757;DHT22;2392;52.578;13.426;2023-03-13T06:48:50;7.90;99.90
4757;DHT22;2392;52.578;13.426;2023-03-13T06:51:19;7.90;99.90
4757;DHT22;2392;52.578;13.426;2023-03-13T06:53:47;7.90;99.90
4757;DHT22;2392;52.578;13.426;2023-03-13T06:56:17;7.90;99.90
4757;DHT22;2392;52.578;13.426;2023-03-13T06:58:46;8.00;99.90
4757;DHT22;2392;52.578;13.426;2023-03-13T07:01:14;8.00;99.90
4757;DHT22;2392;52.578;13.426;2023-03-13T07:03:43;8.00;99.90
4757;DHT22;2392;52.578;13.426;2023-03-13T07:06:11;8.00;99.90
4757;DHT22;2392;52.578;13.426;2023-03-13T07:08:38;8.00;99.90
4757;DHT22;2392;52.578;13.426;2023-03-13T07:11:06;8.10;99.90
4757;DHT22;2392;52.578;13.426;2023-03-13T07:13:34;8.10;99.90
4757;DHT22;2392;52.578;13.426;2023-03-13T07:16:01;8.10;99.90
4757;DHT22;2392;52.578;13.426;2023-03-13T07:18:30;8.10;99.90
4757;DHT22;2392;52.578;13.426;2023-03-13T07:20:59;8.10;99.90
4757;DHT22;2392;52.578;13.426;2023-03-13T07:23:30;8.20;99.90
4757;DHT22;2392;52.578;13.426;2023-03-13T07:25:59;8.20;99.90
4757;DHT22;2392;52.578;13.426;2023-03-13T07:28:28;8.20;99.90
4757;DHT22;2392;52.578;13.426;2023-03-13T07:31:02;8.20;99.90
4757;DHT22;2392;52.578;13.426;2023-03-13T07:33:30;8.20;99.90
4757;DHT22;2392;52.578;13.426;2023-03-13T07:35:58;8.20;99.90
4757;DHT22;2392;52.578;13.426;2023-03-13T07:38:25;8.20;99.90
4757;DHT22;2392;52.578;13.426;2023-03-13T07:40:53;8.20;99.90
4757;DHT22;2392;52.578;13.426;2023-03-13T07:43:21;8.30;99.90
4757;DHT22;2392;52.578;13.426;2023-03-13T07:45:50;8.30;99.90
4757;DHT22;2392;52.578;13.426;2023-03-13T07:48:17;8.30;99.90
4757;DHT22;2392;52.578;13.426;2023-03-13T07:50:44;8.30;99.90
4757;DHT22;2392;52.578;13.426;2023-03-13T07:53:13;8.40;99.90
4757;DHT22;2392;52.578;13.426;2023-03-13T07:55:51;8.40;99.90
4757;DHT22;2392;52.578;13.426;2023-03-13T07:58:19;8.40;99.90
4757;DHT22;2392;52.578;13.426;2023-03-13T08:00:46;8.40;99.90
4757;DHT22;2392;52.578;13.426;2023-03-13T08:03:13;8.50;99.90
4757;DHT22;2392;52.578;13.426;2023-03-13T08:05:40;8.50;99.90
4757;DHT22;2392;52.578;13.426;2023-03-13T08:08:07;8.50;99.90
4757;DHT22;2392;52.578;13.426;2023-03-13T08:10:35;8.50;99.90
4757;DHT22;2392;52.578;13.426;2023-03-13T08:13:02;8.50;99.90
4757;DHT22;2392;52.578;13.426;2023-03-13T08:15:29;8.60;99.90
4757;DHT22;2392;52.578;13.426;2023-03-13T08:17:56;8.60;99.90
4757;DHT22;2392;52.578;13.426;2023-03-13T08:20:24;8.60;99.90
4757;DHT22;2392;52.578;13.426;2023-03-13T08:22:55;8.60;99.90
4757;DHT22;2392;52.578;13.426;2023-03-13T08:25:22;8.60;99.90
4757;DHT22;2392;52.578;13.426;2023-03-13T08:27:51;8.60;99.90
4757;DHT22;2392;52.578;13.426;2023-03-13T08:30:18;8.60;99.90
4757;DHT22;2392;52.578;13.426;2023-03-13T08:32:45;8.60;99.90
4757;DHT22;2392;52.578;13.426;2023-03-13T08:35:12;8.60;99.90
4757;DHT22;2392;52.578;13.426;2023-03-13T08:37:39;8.60;99.90
4757;DHT22;2392;52.578;13.426;2023-03-13T08:40:07;8.70;99.90
4757;DHT22;2392;52.578;13.426;2023-03-13T08:42:37;8.60;99.90
4757;DHT22;2392;52.578;13.426;2023-03-13T08:45:07;8.60;99.90
4757;DHT22;2392;52.578;13.426;2023-03-13T08:47:34;8.60;99.90
4757;DHT22;2392;52.578;13.426;2023-03-13T08:50:02;8.70;99.90
4757;DHT22;2392;52.578;13.426;2023-03-13T08:52:29;8.70;99.90
4757;DHT22;2392;52.578;13.426;2023-03-13T08:54:56;8.70;99.90
4757;DHT22;2392;52.578;13.426;2023-03-13T08:57:23;8.70;99.90
4757;DHT22;2392;52.578;13.426;2023-03-13T08:59:50;8.70;99.90
4757;DHT22;2392;52.578;13.426;2023-03-13T09:02:18;8.70;99.90
4757;DHT22;2392;52.578;13.426;2023-03-13T09:04:46;8.80;99.90
4757;DHT22;2392;52.578;13.426;2023-03-13T09:07:14;8.80;99.90
4757;DHT22;2392;52.578;13.426;2023-03-13T09:09:42;8.80;99.90
4757;DHT22;2392;52.578;13.426;2023-03-13T09:12:09;8.90;99.90
4757;DHT22;2392;52.578;13.426;2023-03-13T09:14:36;8.90;99.90
4757;DHT22;2392;52.578;13.426;2023-03-13T09:17:03;8.90;99.90
4757;DHT22;2392;52.578;13.426;2023-03-13T09:19:32;9.00;99.90
4757;DHT22;2392;52.578;13.426;2023-03-13T09:21:59;9.00;99.90
4757;DHT22;2392;52.578;13.426;2023-03-13T09:24:26;9.10;99.90
4757;DHT22;2392;52.578;13.426;2023-03-13T09:26:53;9.10;99.90
4757;DHT22;2392;52.578;13.426;2023-03-13T09:29:21;9.20;99.90
4757;DHT22;2392;52.578;13.426;2023-03-13T09:31:48;9.20;99.90
4757;DHT22;2392;52.578;13.426;2023-03-13T09:34:15;9.30;99.90
4757;DHT22;2392;52.578;13.426;2023-03-13T09:36:43;9.30;99.90
4757;DHT22;2392;52.578;13.426;2023-03-13T09:39:10;9.30;99.90
4757;DHT22;2392;52.578;13.426;2023-03-13T09:41:41;9.30;99.90
4757;DHT22;2392;52.578;13.426;2023-03-13T09:44:13;9.30;99.90
4757;DHT22;2392;52.578;13.426;2023-03-13T09:46:44;9.30;99.90
4757;DHT22;2392;52.578;13.426;2023-03-13T09:49:28;9.30;99.90
4757;DHT22;2392;52.578;13.426;2023-03-13T09:52:04;9.40;99.90
4757;DHT22;2392;52.578;13.426;2023-03-13T09:54:38;9.40;99.90
4757;DHT22;2392;52.578;13.426;2023-03-13T09:57:14;9.40;99.90
4757;DHT22;2392;52.578;13.426;2023-03-13T09:59:46;9.40;99.90
4757;DHT22;2392;52.578;13.426;2023-03-13T10:02:22;9.40;99.90
4757;DHT22;2392;52.578;13.426;2023-03-13T10:04:54;9.40;99.90
4757;DHT22;2392;52.578;13.426;2023-03-13T10:07:24;9.40;99.90
4757;DHT22;2392;52.578;13.426;2023-03-13T10:09:51;9.50;99.90
4757;DHT22;2392;52.578;13.426;2023-03-13T10:12:19;9.50;99.90
4757;DHT22;2392;52.578;13.426;2023-03-13T10:14:53;9.60;99.90
4757;DHT22;2392;52.578;13.426;2023-03-13T10:17:30;9.70;99.90
4757;DHT22;2392;52.578;13.426;2023-03-13T10:20:00;9.70;99.90
4757;DHT22;2392;52.578;13.426;2023-03-13T10:22:35;9.80;99.90
4757;DHT22;2392;52.578;13.426;2023-03-13T10:25:07;9.80;99.90
4757;DHT22;2392;52.578;13.426;2023-03-13T10:27:43;9.90;99.90
4757;DHT22;2392;52.578;13.426;2023-03-13T10:30:20;9.90;99.90
4757;DHT22;2392;52.578;13.426;2023-03-13T10:32:48;10.00;99.90
4757;DHT22;2392;52.578;13.426;2023-03-13T10:35:21;10.10;99.90
4757;DHT22;2392;52.578;13.426;2023-03-13T10:37:49;10.20;99.90
4757;DHT22;2392;52.578;13.426;2023-03-13T10:40:22;10.30;99.90
4757;DHT22;2392;52.578;13.426;2023-03-13T10:42:51;10.30;99.90
4757;DHT22;2392;52.578;13.426;2023-03-13T10:45:19;10.40;99.90
4757;DHT22;2392;52.578;13.426;2023-03-13T10:47:53;10.50;99.90
4757;DHT22;2392;52.578;13.426;2023-03-13T10:50:23;10.60;99.90
4757;DHT22;2392;52.578;13.426;2023-03-13T10:52:53;10.90;99.90
4757;DHT22;2392;52.578;13.426;2023-03-13T10:55:22;11.10;99.90
4757;DHT22;2392;52.578;13.426;2023-03-13T10:57:54;11.20;99.90
4757;DHT22;2392;52.578;13.426;2023-03-13T11:00:29;11.30;99.90
4757;DHT22;2392;52.578;13.426;2023-03-13T11:02:56;11.50;99.90
4757;DHT22;2392;52.578;13.426;2023-03-13T11:05:32;11.50;99.90
4757;DHT22;2392;52.578;13.426;2023-03-13T11:08:11;11.50;99.90
4757;DHT22;2392;52.578;13.426;2023-03-13T11:10:51;11.70;99.90
4757;DHT22;2392;52.578;13.426;2023-03-13T11:13:33;12.00;99.90
4757;DHT22;2392;52.578;13.426;2023-03-13T11:16:07;12.50;99.90
4757;DHT22;2392;52.578;13.426;2023-03-13T11:18:39;13.10;99.90
4757;DHT22;2392;52.578;13.426;2023-03-13T11:21:15;13.70;99.90
4757;DHT22;2392;52.578;13.426;2023-03-13T11:23:50;13.80;99.90
4757;DHT22;2392;52.578;13.426;2023-03-13T11:26:22;13.60;99.90
4757;DHT22;2392;52.578;13.426;2023-03-13T11:28:55;13.40;99.90
4757;DHT22;2392;52.578;13.426;2023-03-13T11:31:28;13.20;99.90
4757;DHT22;2392;52.578;13.426;2023-03-13T11:34:04;13.10;99.90
4757;DHT22;2392;52.578;13.426;2023-03-13T11:36:34;13.00;99.90
4757;DHT22;2392;52.578;13.426;2023-03-13T11:42:18;12.80;99.90
4757;DHT22;2392;52.578;13.426;2023-03-13T11:44:56;12.80;99.90
4757;DHT22;2392;52.578;13.426;2023-03-13T11:47:41;12.90;99.90
4757;DHT22;2392;52.578;13.426;2023-03-13T11:50:28;12.90;99.90
4757;DHT22;2392;52.578;13.426;2023-03-13T11:53:14;12.80;99.90
4757;DHT22;2392;52.578;13.426;2023-03-13T11:56:04;12.80;99.90
4757;DHT22;2392;52.578;13.426;2023-03-13T11:58:47;12.90;99.90
4757;DHT22;2392;52.578;13.426;2023-03-13T12:01:18;12.90;99.90
4757;DHT22;2392;52.578;13.426;2023-03-13T12:03:54;12.90;99.90
4757;DHT22;2392;52.578;13.426;2023-03-13T12:06:27;13.00;99.90
4757;DHT22;2392;52.578;13.426;2023-03-13T12:08:59;13.10;99.90
4757;DHT22;2392;52.578;13.426;2023-03-13T12:11:32;13.10;99.90
4757;DHT22;2392;52.578;13.426;2023-03-13T12:14:04;13.30;99.90
4757;DHT22;2392;52.578;13.426;2023-03-13T12:16:40;13.60;99.90
4757;DHT22;2392;52.578;13.426;2023-03-13T12:19:13;13.80;99.90
4757;DHT22;2392;52.578;13.426;2023-03-13T12:21:46;14.00;99.90
4757;DHT22;2392;52.578;13.426;2023-03-13T12:24:20;14.10;99.90
4757;DHT22;2392;52.578;13.426;2023-03-13T12:26:53;14.00;99.90
4757;DHT22;2392;52.578;13.426;2023-03-13T12:29:29;14.00;99.90
4757;DHT22;2392;52.578;13.426;2023-03-13T12:32:02;13.90;99.90
4757;DHT22;2392;52.578;13.426;2023-03-13T12:34:37;13.80;99.90
4757;DHT22;2392;52.578;13.426;2023-03-13T12:37:11;13.70;99.90
4757;DHT22;2392;52.578;13.426;2023-03-13T12:39:44;13.70;99.90
4757;DHT22;2392;52.578;13.426;2023-03-13T12:42:27;13.80;99.90
4757;DHT22;2392;52.578;13.426;2023-03-13T12:44:57;13.90;99.90
4757;DHT22;2392;52.578;13.426;2023-03-13T12:47:29;14.00;99.90
4757;DHT22;2392;52.578;13.426;2023-03-13T12:50:20;14.00;99.90
4757;DHT22;2392;52.578;13.426;2023-03-13T12:53:23;14.20;99.90
4757;DHT22;2392;52.578;13.426;2023-03-13T12:56:16;14.70;99.90
4757;DHT22;2392;52.578;13.426;2023-03-13T12:58:49;15.20;99.90
4757;DHT22;2392;52.578;13.426;2023-03-13T13:01:27;15.70;99.90
4757;DHT22;2392;52.578;13.426;2023-03-13T13:03:58;16.20;99.90
4757;DHT22;2392;52.578;13.426;2023-03-13T13:06:28;16.40;99.90
4757;DHT22;2392;52.578;13.426;2023-03-13T13:09:19;16.70;99.90
4757;DHT22;2392;52.578;13.426;2023-03-13T13:11:49;16.90;99.90
4757;DHT22;2392;52.578;13.426;2023-03-13T13:17:48;16.90;99.90
4757;DHT22;2392;52.578;13.426;2023-03-13T13:20:40;16.80;99.90
4757;DHT22;2392;52.578;13.426;2023-03-13T13:23:29;17.00;99.90
4757;DHT22;2392;52.578;13.426;2023-03-13T13:32:35;17.30;99.90
4757;DHT22;2392;52.578;13.426;2023-03-13T13:35:25;17.50;99.90
4757;DHT22;2392;52.578;13.426;2023-03-13T13:37:56;17.30;99.90
4757;DHT22;2392;52.578;13.426;2023-03-13T13:40:57;17.30;99.90
4757;DHT22;2392;52.578;13.426;2023-03-13T13:43:28;17.20;99.90
4757;DHT22;2392;52.578;13.426;2023-03-13T13:46:02;17.20;99.90
4757;DHT22;2392;52.578;13.426;2023-03-13T13:48:34;17.30;99.90
4757;DHT22;2392;52.578;13.426;2023-03-13T13:51:22;17.30;99.90
4757;DHT22;2392;52.578;13.426;2023-03-13T13:53:52;17.10;99.90
4757;DHT22;2392;52.578;13.426;2023-03-13T13:56:41;17.00;99.90
4757;DHT22;2392;52.578;13.426;2023-03-13T13:59:39;16.80;99.90
4757;DHT22;2392;52.578;13.426;2023-03-13T14:02:18;16.90;99.90
4757;DHT22;2392;52.578;13.426;2023-03-13T14:04:53;16.80;99.90
4757;DHT22;2392;52.578;13.426;2023-03-13T14:07:27;16.70;99.90
4757;DHT22;2392;52.578;13.426;2023-03-13T14:10:19;16.60;99.90
4757;DHT22;2392;52.578;13.426;2023-03-13T14:12:51;16.70;99.90
4757;DHT22;2392;52.578;13.426;2023-03-13T14:15:19;16.70;99.90
4757;DHT22;2392;52.578;13.426;2023-03-13T14:17:49;16.80;99.90
4757;DHT22;2392;52.578;13.426;2023-03-13T14:20:23;17.00;99.90
4757;DHT22;2392;52.578;13.426;2023-03-13T14:22:54;17.10;99.90
4757;DHT22;2392;52.578;13.426;2023-03-13T14:25:23;17.00;99.90
4757;DHT22;2392;52.578;13.426;2023-03-13T14:27:52;17.00;99.90
4757;DHT22;2392;52.578;13.426;2023-03-13T14:30:20;17.20;99.90
4757;DHT22;2392;52.578;13.426;2023-03-13T14:32:49;17.10;99.90
4757;DHT22;2392;52.578;13.426;2023-03-13T14:35:18;17.00;99.90
4757;DHT22;2392;52.578;13.426;2023-03-13T14:37:49;17.00;99.90
4757;DHT22;2392;52.578;13.426;2023-03-13T14:40:24;16.90;99.90
4757;DHT22;2392;52.578;13.426;2023-03-13T14:42:53;16.70;99.90
4757;DHT22;2392;52.578;13.426;2023-03-13T14:45:24;16.60;99.90
4757;DHT22;2392;52.578;13.426;2023-03-13T14:47:53;16.50;99.90
4757;DHT22;2392;52.578;13.426;2023-03-13T14:50:22;16.40;99.90
4757;DHT22;2392;52.578;13.426;2023-03-13T14:52:53;16.40;99.90
4757;DHT22;2392;52.578;13.426;2023-03-13T14:55:30;16.40;99.90
4757;DHT22;2392;52.578;13.426;2023-03-13T14:58:00;16.40;99.90
4757;DHT22;2392;52.578;13.426;2023-03-13T15:00:32;16.40;99.90
4757;DHT22;2392;52.578;13.426;2023-03-13T15:03:28;16.50;99.90
4757;DHT22;2392;52.578;13.426;2023-03-13T15:06:12;16.40;99.90
4757;DHT22;2392;52.578;13.426;2023-03-13T15:08:42;16.30;99.90
4757;DHT22;2392;52.578;13.426;2023-03-13T15:11:26;16.30;99.90
4757;DHT22;2392;52.578;13.426;2023-03-13T15:13:54;16.20;99.90
4757;DHT22;2392;52.578;13.426;2023-03-13T15:16:23;16.20;99.90
4757;DHT22;2392;52.578;13.426;2023-03-13T15:18:52;16.10;99.90
4757;DHT22;2392;52.578;13.426;2023-03-13T15:21:26;16.10;99.90
4757;DHT22;2392;52.578;13.426;2023-03-13T15:23:55;16.10;99.90
4757;DHT22;2392;52.578;13.426;2023-03-13T15:26:26;16.10;99.90
4757;DHT22;2392;52.578;13.426;2023-03-13T15:28:53;16.10;99.90
4757;DHT22;2392;52.578;13.426;2023-03-13T15:31:24;16.10;99.90
4757;DHT22;2392;52.578;13.426;2023-03-13T15:33:55;16.00;99.90
4757;DHT22;2392;52.578;13.426;2023-03-13T15:36:22;16.00;99.90
4757;DHT22;2392;52.578;13.426;2023-03-13T15:38:50;16.00;99.90
4757;DHT22;2392;52.578;13.426;2023-03-13T15:41:17;15.90;99.90
4757;DHT22;2392;52.578;13.426;2023-03-13T15:43:46;15.90;99.90
4757;DHT22;2392;52.578;13.426;2023-03-13T15:46:17;15.90;99.90
4757;DHT22;2392;52.578;13.426;2023-03-13T15:48:44;15.80;99.90
4757;DHT22;2392;52.578;13.426;2023-03-13T15:51:14;15.80;99.90
4757;DHT22;2392;52.578;13.426;2023-03-13T15:53:48;15.80;99.90
4757;DHT22;2392;52.578;13.426;2023-03-13T15:56:19;15.70;99.90
4757;DHT22;2392;52.578;13.426;2023-03-13T15:58:49;15.70;99.90
4757;DHT22;2392;52.578;13.426;2023-03-13T16:01:17;15.70;99.90
4757;DHT22;2392;52.578;13.426;2023-03-13T16:03:44;15.70;99.90
4757;DHT22;2392;52.578;13.426;2023-03-13T16:06:14;15.70;99.90
4757;DHT22;2392;52.578;13.426;2023-03-13T16:08:42;15.70;99.90
4757;DHT22;2392;52.578;13.426;2023-03-13T16:11:13;15.60;99.90
4757;DHT22;2392;52.578;13.426;2023-03-13T16:13:40;15.60;99.90
4757;DHT22;2392;52.578;13.426;2023-03-13T16:16:18;15.60;99.90
4757;DHT22;2392;52.578;13.426;2023-03-13T16:18:46;15.60;99.90
4757;DHT22;2392;52.578;13.426;2023-03-13T16:21:20;15.60;99.90
4757;DHT22;2392;52.578;13.426;2023-03-13T16:23:47;15.50;99.90
4757;DHT22;2392;52.578;13.426;2023-03-13T16:26:16;15.50;99.90
4757;DHT22;2392;52.578;13.426;2023-03-13T16:28:44;15.50;99.90
4757;DHT22;2392;52.578;13.426;2023-03-13T16:31:18;15.40;99.90
4757;DHT22;2392;52.578;13.426;2023-03-13T16:33:46;15.40;99.90
4757;DHT22;2392;52.578;13.426;2023-03-13T16:36:15;15.40;99.90
4757;DHT22;2392;52.578;13.426;2023-03-13T16:38:43;15.30;99.90
4757;DHT22;2392;52.578;13.426;2023-03-13T16:41:14;15.30;99.90
4757;DHT22;2392;52.578;13.426;2023-03-13T16:43:41;15.20;99.90